Time;durP1;ratioP1;P1;durP2;ratioP2;P2;SDS_P1;SDS_P2;PMS_P1;PMS_P2;Temp;Humidity;BMP_temperature;BMP_pressure;BME280_temperature;BME280_humidity;BME280_pressure;Samples;Min_cycle;Max_cycle;Signal;HPM_P1;HPM_P2
2021/05/12 00:00:42;;;;;;;;;;;;;;;20.85;43.18;100647.19;5039319;28;1112;-51
2021/05/12 00:03:07;;;;;;;;;;;;;;;20.81;43.56;100644.19;5039326;28;740;-45
2021/05/12 00:05:33;;;;;;;;;;;;;;;20.88;43.20;100643.78;5038819;28;764;-44
2021/05/12 00:07:58;;;;;;;;;;;;;;;20.92;43.12;100646.78;5039559;28;747;-44
2021/05/12 00:10:23;;;;;;;;;;;;;;;20.80;43.46;100647.28;5038888;28;827;-51
2021/05/12 00:12:49;;;;;;;;;;;;;;;20.82;43.46;100640.31;5038301;28;1922;-45
2021/05/12 00:15:15;;;;;;;;;;;;;;;20.92;43.08;100632.97;5039106;28;808;-59
2021/05/12 00:17:43;;;;;;;;;;;;;;;20.82;43.34;100639.50;5037750;28;1319;-58
2021/05/12 00:20:09;;;;;;;;;;;;;;;20.98;42.72;100628.97;5038539;28;1099;-58
2021/05/12 00:25:03;;;;;;;;;;;;;;;20.81;43.13;100629.56;5038680;28;792;-57
2021/05/12 00:27:29;;;;;;;;;;;;;;;20.81;43.47;100621.28;5036829;28;1272;-57
2021/05/12 00:29:54;;;;;;;;;;;;;;;20.70;43.52;100622.59;5039008;28;831;-58
2021/05/12 00:32:20;;;;;;;;;;;;;;;20.76;43.38;100622.22;5038999;28;1914;-58
2021/05/12 00:34:45;;;;;;;;;;;;;;;20.76;43.40;100618.59;5038330;28;807;-45
2021/05/12 00:37:11;;;;;;;;;;;;;;;20.80;43.41;100614.94;5038621;28;1076;-44
2021/05/12 00:39:36;;;;;;;;;;;;;;;20.94;43.03;100608.59;5038931;28;811;-56
2021/05/12 00:42:02;;;;;;;;;;;;;;;20.79;43.18;100599.47;5037859;28;971;-58
2021/05/12 00:44:27;;;;;;;;;;;;;;;20.72;43.50;100604.59;5038600;28;769;-57
2021/05/12 00:46:53;;;;;;;;;;;;;;;20.84;43.29;100599.34;5038843;28;744;-44
2021/05/12 00:49:22;;;;;;;;;;;;;;;20.76;43.35;100597.34;5038206;28;745;-45
2021/05/12 00:51:48;;;;;;;;;;;;;;;20.66;43.49;100591.97;5038209;28;1981;-58
2021/05/12 00:54:13;;;;;;;;;;;;;;;20.82;43.29;100590.56;5020734;28;976;-58
2021/05/12 00:56:40;;;;;;;;;;;;;;;21.03;42.59;100590.16;5037606;28;954;-50
2021/05/12 00:59:06;;;;;;;;;;;;;;;20.94;42.60;100584.50;5038099;28;803;-45
2021/05/12 01:01:31;;;;;;;;;;;;;;;20.91;42.95;100587.09;5038362;28;810;-45
2021/05/12 01:03:57;;;;;;;;;;;;;;;20.91;42.90;100584.34;5036674;28;796;-46
2021/05/12 01:06:30;;;;;;;;;;;;;;;20.98;42.76;100577.25;5038033;28;863;-59
2021/05/12 01:08:55;;;;;;;;;;;;;;;21.07;42.38;100584.81;5038368;28;836;-44
2021/05/12 01:11:21;;;;;;;;;;;;;;;20.77;43.23;100579.59;5036256;28;1030;-58
2021/05/12 01:13:46;;;;;;;;;;;;;;;20.52;43.54;100573.44;5037815;28;1977;-45
2021/05/12 01:16:12;;;;;;;;;;;;;;;20.91;42.95;100560.25;5038580;28;808;-58
2021/05/12 01:18:37;;;;;;;;;;;;;;;20.62;43.38;100564.16;5037509;28;784;-49
2021/05/12 01:21:04;;;;;;;;;;;;;;;20.61;43.50;100561.69;5037777;28;1234;-57
2021/05/12 01:23:31;;;;;;;;;;;;;;;20.88;42.93;100560.88;5038146;28;833;-57
2021/05/12 01:25:56;;;;;;;;;;;;;;;20.74;43.23;100560.09;5037078;28;950;-56
2021/05/12 01:28:22;;;;;;;;;;;;;;;20.60;43.68;100560.03;5037478;28;998;-57
2021/05/12 01:30:58;;;;;;;;;;;;;;;20.88;42.87;100549.03;5037738;28;784;-58
2021/05/12 01:33:24;;;;;;;;;;;;;;;20.66;43.34;100553.28;5037082;28;1977;-57
2021/05/12 01:35:49;;;;;;;;;;;;;;;20.74;43.17;100544.31;5037034;28;1084;-58
2021/05/12 01:38:15;;;;;;;;;;;;;;;20.92;42.82;100539.00;5037506;28;728;-51
2021/05/12 01:40:40;;;;;;;;;;;;;;;20.70;43.32;100534.19;5037059;28;788;-51
2021/05/12 01:43:06;;;;;;;;;;;;;;;20.39;44.06;100527.28;5036040;28;959;-44
2021/05/12 01:45:32;;;;;;;;;;;;;;;20.80;43.04;100533.97;5037270;28;835;-56
2021/05/12 01:47:57;;;;;;;;;;;;;;;20.64;43.13;100522.41;5036949;28;828;-44
2021/05/12 01:50:22;;;;;;;;;;;;;;;20.74;43.14;100524.97;5037445;28;808;-58
2021/05/12 01:52:48;;;;;;;;;;;;;;;20.85;42.76;100518.09;5037020;28;1902;-45
2021/05/12 01:55:14;;;;;;;;;;;;;;;21.00;42.62;100519.72;5036760;28;832;-49
2021/05/12 01:57:42;;;;;;;;;;;;;;;20.47;43.84;100525.78;5036741;28;1007;-54
2021/05/12 02:00:20;;;;;;;;;;;;;;;20.66;43.22;100523.72;5037010;28;760;-57
2021/05/12 02:02:46;;;;;;;;;;;;;;;20.59;43.45;100519.72;5036967;28;768;-46
2021/05/12 02:05:14;;;;;;;;;;;;;;;20.60;43.52;100521.38;5037034;28;831;-52
2021/05/12 02:07:40;;;;;;;;;;;;;;;20.92;42.80;100520.44;5036891;28;840;-46
2021/05/12 02:10:06;;;;;;;;;;;;;;;20.70;43.25;100509.31;5036972;28;792;-46
2021/05/12 02:12:31;;;;;;;;;;;;;;;20.87;42.52;100508.69;5036702;28;1910;-57
2021/05/12 02:14:57;;;;;;;;;;;;;;;20.65;43.30;100512.97;5036804;28;782;-52
2021/05/12 02:17:22;;;;;;;;;;;;;;;20.54;43.52;100506.84;5036813;28;894;-57
2021/05/12 02:19:48;;;;;;;;;;;;;;;20.54;43.58;100506.00;5036936;28;745;-47
2021/05/12 02:22:13;;;;;;;;;;;;;;;20.45;43.68;100509.47;5036533;28;1044;-46
2021/05/12 02:24:39;;;;;;;;;;;;;;;20.43;43.55;100506.22;5036631;28;821;-57
2021/05/12 02:27:04;;;;;;;;;;;;;;;20.31;44.02;100505.91;5036422;28;959;-55
2021/05/12 02:29:30;;;;;;;;;;;;;;;20.48;43.44;100511.66;5036638;28;1026;-56
2021/05/12 02:31:55;;;;;;;;;;;;;;;20.44;43.54;100510.63;5036309;28;1967;-48
2021/05/12 02:34:20;;;;;;;;;;;;;;;20.54;43.32;100511.53;5036597;28;740;-55
2021/05/12 02:36:46;;;;;;;;;;;;;;;20.47;43.36;100507.25;5036283;28;1163;-51
2021/05/12 02:39:11;;;;;;;;;;;;;;;20.51;43.51;100513.00;5036377;28;748;-56
2021/05/12 02:41:37;;;;;;;;;;;;;;;20.48;43.49;100508.91;5036132;28;955;-46
2021/05/12 02:44:02;;;;;;;;;;;;;;;20.58;43.11;100510.63;5036505;28;784;-47
2021/05/12 02:46:28;;;;;;;;;;;;;;;20.73;42.69;100511.47;5035582;28;718;-48
2021/05/12 02:48:53;;;;;;;;;;;;;;;20.65;42.94;100510.19;5036305;28;724;-56
2021/05/12 02:51:18;;;;;;;;;;;;;;;20.61;43.19;100512.78;5036376;28;736;-47
2021/05/12 02:53:44;;;;;;;;;;;;;;;20.72;42.58;100513.41;5018803;28;1922;-55
2021/05/12 02:56:09;;;;;;;;;;;;;;;20.54;43.00;100511.53;5035895;28;1006;-47
2021/05/12 02:58:35;;;;;;;;;;;;;;;20.83;42.50;100505.72;5036381;28;863;-57
2021/05/12 03:01:00;;;;;;;;;;;;;;;20.68;42.87;100510.44;5036161;28;900;-58
2021/05/12 03:03:26;;;;;;;;;;;;;;;20.59;43.14;100508.69;5036124;28;851;-46
2021/05/12 03:05:51;;;;;;;;;;;;;;;20.48;43.45;100510.81;5036514;28;796;-57
2021/05/12 03:08:17;;;;;;;;;;;;;;;20.54;43.17;100501.31;5036393;28;835;-45
2021/05/12 03:10:42;;;;;;;;;;;;;;;20.62;42.94;100502.53;5035811;28;744;-57
2021/05/12 03:13:08;;;;;;;;;;;;;;;20.56;43.14;100498.25;5035676;28;1922;-45
2021/05/12 03:15:33;;;;;;;;;;;;;;;20.89;42.27;100500.88;5036065;28;890;-57
2021/05/12 03:17:59;;;;;;;;;;;;;;;20.59;43.09;100497.63;5035967;28;865;-48
2021/05/12 03:20:25;;;;;;;;;;;;;;;20.66;42.80;100495.25;5036099;28;1061;-56
2021/05/12 03:22:50;;;;;;;;;;;;;;;20.58;42.92;100496.81;5036386;28;788;-55
2021/05/12 03:25:15;;;;;;;;;;;;;;;20.37;43.48;100495.56;5035618;28;761;-47
2021/05/12 03:27:41;;;;;;;;;;;;;;;20.56;42.99;100492.72;5035917;28;966;-47
2021/05/12 03:30:07;;;;;;;;;;;;;;;20.56;42.98;100499.06;5035905;28;836;-48
2021/05/12 03:32:33;;;;;;;;;;;;;;;20.83;42.50;100486.38;5035924;28;1913;-50
2021/05/12 03:34:58;;;;;;;;;;;;;;;20.70;42.80;100493.56;5035951;28;840;-46
2021/05/12 03:37:24;;;;;;;;;;;;;;;20.54;43.10;100487.50;5036010;28;1159;-54
2021/05/12 03:39:49;;;;;;;;;;;;;;;20.70;42.70;100496.31;5035961;28;828;-46
2021/05/12 03:42:15;;;;;;;;;;;;;;;20.95;41.95;100483.09;5035619;28;963;-51
2021/05/12 03:44:40;;;;;;;;;;;;;;;20.80;42.30;100487.81;5035541;28;792;-53
2021/05/12 03:47:06;;;;;;;;;;;;;;;20.63;42.85;100479.31;5035625;28;837;-45
2021/05/12 03:49:31;;;;;;;;;;;;;;;20.56;42.80;100479.72;5036363;28;757;-45
2021/05/12 03:51:56;;;;;;;;;;;;;;;20.51;42.97;100483.41;5035699;28;1914;-58
2021/05/12 03:54:22;;;;;;;;;;;;;;;20.52;43.27;100485.06;5034795;28;864;-54
2021/05/12 03:56:48;;;;;;;;;;;;;;;20.74;42.85;100482.72;5035547;28;974;-55
2021/05/12 03:59:13;;;;;;;;;;;;;;;20.87;42.29;100481.06;5038983;28;812;-46
2021/05/12 04:01:39;;;;;;;;;;;;;;;20.65;42.88;100480.66;5039142;28;745;-46
2021/05/12 04:04:07;;;;;;;;;;;;;;;20.72;42.66;100473.91;5039353;28;820;-56
2021/05/12 04:06:32;;;;;;;;;;;;;;;20.94;42.25;100473.16;5039364;28;752;-47
2021/05/12 04:08:58;;;;;;;;;;;;;;;20.81;42.53;100461.81;5039030;28;855;-56
2021/05/12 04:11:23;;;;;;;;;;;;;;;20.47;43.36;100462.25;5038782;28;966;-57
2021/05/12 04:13:49;;;;;;;;;;;;;;;20.87;42.46;100464.47;5039300;28;1942;-56
2021/05/12 04:16:14;;;;;;;;;;;;;;;20.93;42.20;100457.69;5038839;28;767;-57
2021/05/12 04:18:40;;;;;;;;;;;;;;;20.76;42.72;100453.66;5039720;28;723;-45
2021/05/12 04:21:05;;;;;;;;;;;;;;;21.06;42.03;100447.75;5039435;28;1109;-56
2021/05/12 04:23:30;;;;;;;;;;;;;;;20.88;42.37;100452.28;5038955;28;784;-57
2021/05/12 04:25:56;;;;;;;;;;;;;;;20.77;42.61;100443.41;5039283;28;970;-57
2021/05/12 04:28:21;;;;;;;;;;;;;;;20.64;42.87;100448.59;5038853;28;942;-45
2021/05/12 04:30:47;;;;;;;;;;;;;;;20.92;42.41;100447.78;5037481;28;1163;-44
2021/05/12 04:33:12;;;;;;;;;;;;;;;20.84;42.20;100444.59;5038861;28;1910;-45
2021/05/12 04:35:38;;;;;;;;;;;;;;;20.77;42.61;100449.75;5038932;28;789;-44
2021/05/12 04:38:03;;;;;;;;;;;;;;;21.04;41.92;100450.78;5038279;28;1192;-59
2021/05/12 04:40:29;;;;;;;;;;;;;;;21.15;41.64;100446.69;5020671;28;885;-45
2021/05/12 04:42:54;;;;;;;;;;;;;;;21.12;41.84;100446.47;5050276;28;1084;-57
2021/05/12 04:45:20;;;;;;;;;;;;;;;21.38;41.14;100441.16;5038118;28;752;-45
2021/05/12 04:47:56;;;;;;;;;;;;;;;21.47;41.16;100443.97;5053800;28;772;-45
2021/05/12 04:50:22;;;;;;;;;;;;;;;21.42;41.02;100433.88;5038689;28;819;-50
2021/05/12 04:52:48;;;;;;;;;;;;;;;21.71;40.26;100443.66;5037960;28;1979;-45
2021/05/12 04:55:13;;;;;;;;;;;;;;;21.69;40.44;100440.41;5038625;28;815;-45
2021/05/12 04:57:39;;;;;;;;;;;;;;;21.77;40.41;100433.28;5037867;28;1014;-57
2021/05/12 05:00:05;;;;;;;;;;;;;;;21.70;40.51;100431.78;5038088;28;725;-57
2021/05/12 05:02:30;;;;;;;;;;;;;;;21.75;40.48;100435.56;5038350;28;815;-57
2021/05/12 05:04:56;;;;;;;;;;;;;;;21.72;40.45;100438.97;5038236;28;843;-48
2021/05/12 05:07:21;;;;;;;;;;;;;;;21.90;40.33;100439.88;5037558;28;855;-48
2021/05/12 05:09:47;;;;;;;;;;;;;;;22.02;39.98;100434.53;5036865;28;1063;-57
2021/05/12 05:12:12;;;;;;;;;;;;;;;22.08;39.95;100427.75;5021269;28;1910;-56
2021/05/12 05:14:37;;;;;;;;;;;;;;;22.02;39.90;100431.78;5037006;28;1048;-56
2021/05/12 05:17:03;;;;;;;;;;;;;;;22.03;39.84;100427.88;5037652;28;1281;-58
2021/05/12 05:19:28;;;;;;;;;;;;;;;22.01;39.98;100425.44;5036411;28;898;-47
2021/05/12 05:21:56;;;;;;;;;;;;;;;22.08;39.84;100422.22;5035941;28;977;-56
2021/05/12 05:24:21;;;;;;;;;;;;;;;22.14;39.53;100418.16;5038086;28;799;-47
2021/05/12 05:26:47;;;;;;;;;;;;;;;22.13;39.66;100419.31;5036362;28;1039;-55
2021/05/12 05:29:12;;;;;;;;;;;;;;;22.05;39.87;100422.84;5036592;28;749;-57
2021/05/12 05:31:38;;;;;;;;;;;;;;;21.72;40.71;100419.59;5037735;28;824;-59
2021/05/12 05:34:21;;;;;;;;;;;;;;;21.58;41.17;100416.91;5037584;28;621;-50
2021/05/12 05:37:07;;;;;;;;;;;;;;;21.18;42.00;100404.59;4996076;28;1046;-45
2021/05/12 05:39:51;;;;;;;;;;;;;;;21.74;40.68;100414.56;5037732;28;606;-45
2021/05/12 05:42:35;;;;;;;;;;;;;;;22.09;40.10;100415.53;5037110;28;924;-46
2021/05/12 05:45:19;;;;;;;;;;;;;;;22.14;39.90;100415.38;5037132;28;606;-46
2021/05/12 05:48:04;;;;;;;;;;;;;;;22.17;39.74;100409.19;5037442;28;597;-46
2021/05/12 05:51:01;;;;;;;;;;;;;;;22.25;39.60;100417.88;5014868;28;1278;-46
2021/05/12 05:53:45;;;;;;;;;;;;;;;22.30;39.52;100404.69;5037302;28;1975;-51
2021/05/12 05:56:30;;;;;;;;;;;;;;;21.60;40.89;100409.09;5036576;28;1092;-46
2021/05/12 05:59:14;;;;;;;;;;;;;;;21.61;40.79;100410.75;5036954;28;625;-45
2021/05/12 06:02:00;;;;;;;;;;;;;;;21.52;40.97;100405.97;5036168;28;626;-47
2021/05/12 06:04:44;;;;;;;;;;;;;;;21.96;40.18;100410.91;5037571;28;661;-53
2021/05/12 06:07:28;;;;;;;;;;;;;;;22.26;39.53;100414.78;5036753;28;602;-60
2021/05/12 06:10:11;;;;;;;;;;;;;;;22.35;39.46;100412.06;5017377;28;657;-44
2021/05/12 06:12:55;;;;;;;;;;;;;;;21.67;40.83;100404.75;5033465;28;1965;-52
2021/05/12 06:15:40;;;;;;;;;;;;;;;21.69;40.72;100402.47;5036692;28;610;-56
2021/05/12 06:18:25;;;;;;;;;;;;;;;21.61;40.86;100411.53;5037150;28;614;-56
2021/05/12 06:21:08;;;;;;;;;;;;;;;21.99;40.15;100415.81;5036243;28;1068;-46
2021/05/12 06:23:52;;;;;;;;;;;;;;;22.26;39.69;100412.00;5036942;28;613;-56
2021/05/12 06:26:37;;;;;;;;;;;;;;;22.47;39.10;100406.72;5036523;28;927;-46
2021/05/12 06:29:23;;;;;;;;;;;;;;;21.99;40.23;100404.72;5015592;28;1115;-58
2021/05/12 06:32:07;;;;;;;;;;;;;;;21.67;40.63;100401.16;5037254;28;1922;-46
2021/05/12 06:34:51;;;;;;;;;;;;;;;21.65;40.70;100397.91;5036874;28;621;-57
2021/05/12 06:37:35;;;;;;;;;;;;;;;22.07;40.07;100401.19;5035715;28;1045;-46
2021/05/12 06:40:18;;;;;;;;;;;;;;;22.16;39.67;100392.91;5034968;28;864;-50
2021/05/12 06:42:44;;;;;;;;;;;;;;;22.30;39.49;100393.63;5036218;28;932;-45
2021/05/12 06:45:12;;;;;;;;;;;;;;;22.52;38.92;100384.38;5035973;28;741;-57
2021/05/12 06:47:40;;;;;;;;;;;;;;;22.46;39.04;100385.69;5036651;28;772;-43
2021/05/12 06:50:05;;;;;;;;;;;;;;;22.03;40.06;100389.13;5037161;28;858;-46
2021/05/12 06:52:31;;;;;;;;;;;;;;;21.88;40.39;100382.88;5036106;28;1917;-46
2021/05/12 06:54:56;;;;;;;;;;;;;;;21.36;41.57;100391.69;5036871;28;736;-55
2021/05/12 06:57:22;;;;;;;;;;;;;;;21.79;40.66;100395.84;5036214;28;963;-47
2021/05/12 06:59:47;;;;;;;;;;;;;;;22.14;39.82;100384.91;5035878;28;792;-45
2021/05/12 07:02:13;;;;;;;;;;;;;;;22.19;39.64;100378.44;5036491;28;740;-43
2021/05/12 07:04:38;;;;;;;;;;;;;;;21.83;40.58;100382.22;5036372;28;764;-44
2021/05/12 07:07:04;;;;;;;;;;;;;;;21.78;40.68;100377.59;5036137;28;733;-45
2021/05/12 07:09:29;;;;;;;;;;;;;;;21.49;41.18;100384.44;5036322;28;783;-45
2021/05/12 07:11:54;;;;;;;;;;;;;;;21.77;40.88;100375.16;5035246;28;966;-45
2021/05/12 07:14:20;;;;;;;;;;;;;;;22.10;40.01;100380.34;5035511;28;1906;-49
2021/05/12 07:16:45;;;;;;;;;;;;;;;22.37;39.47;100371.00;5035402;28;768;-44
2021/05/12 07:19:11;;;;;;;;;;;;;;;21.93;40.21;100375.56;5036467;28;763;-46
2021/05/12 07:21:36;;;;;;;;;;;;;;;21.80;40.70;100369.81;5035620;28;1041;-44
2021/05/12 07:24:02;;;;;;;;;;;;;;;21.62;40.89;100363.38;5036169;28;788;-45
2021/05/12 07:26:27;;;;;;;;;;;;;;;21.52;41.50;100363.66;5035538;28;944;-55
2021/05/12 07:28:53;;;;;;;;;;;;;;;22.01;40.42;100363.72;5036032;28;744;-45
2021/05/12 07:31:20;;;;;;;;;;;;;;;22.14;39.81;100373.84;5036476;28;784;-47
2021/05/12 07:33:46;;;;;;;;;;;;;;;22.24;39.57;100364.41;5038799;28;1967;-46
2021/05/12 07:36:11;;;;;;;;;;;;;;;21.74;40.72;100354.50;5039656;28;1079;-46
2021/05/12 07:38:37;;;;;;;;;;;;;;;21.75;40.55;100356.13;5040069;28;771;-56
2021/05/12 07:41:03;;;;;;;;;;;;;;;21.25;41.91;100361.84;5039619;28;1044;-50
2021/05/12 07:43:29;;;;;;;;;;;;;;;21.81;40.63;100360.38;5039149;28;958;-57
2021/05/12 07:45:56;;;;;;;;;;;;;;;22.17;39.84;100362.13;5039210;28;915;-53
2021/05/12 07:48:22;;;;;;;;;;;;;;;22.37;39.42;100357.13;5039886;28;787;-51
2021/05/12 07:50:47;;;;;;;;;;;;;;;21.99;40.12;100361.28;5039403;28;855;-45
2021/05/12 07:53:13;;;;;;;;;;;;;;;21.86;40.44;100351.13;5039706;28;1961;-57
2021/05/12 07:55:38;;;;;;;;;;;;;;;21.49;41.30;100353.19;5022358;28;1229;-48
2021/05/12 07:58:04;;;;;;;;;;;;;;;21.62;41.09;100340.44;5039023;28;940;-49
2021/05/12 08:00:34;;;;;;;;;;;;;;;22.04;40.03;100344.50;5040060;28;802;-49
2021/05/12 08:02:59;;;;;;;;;;;;;;;22.30;39.61;100343.75;5039477;28;791;-48
2021/05/12 08:05:25;;;;;;;;;;;;;;;22.15;39.83;100347.78;5039139;28;799;-60
2021/05/12 08:07:51;;;;;;;;;;;;;;;21.94;40.26;100352.31;5039346;28;767;-56
2021/05/12 08:10:16;;;;;;;;;;;;;;;21.70;40.77;100348.78;5039326;28;760;-46
2021/05/12 08:12:41;;;;;;;;;;;;;;;21.64;40.98;100344.53;5038295;28;1973;-47
2021/05/12 08:15:07;;;;;;;;;;;;;;;22.13;39.90;100338.16;5039114;28;788;-56
2021/05/12 08:17:33;;;;;;;;;;;;;;;22.38;39.21;100337.44;5038838;28;1043;-46
2021/05/12 08:20:00;;;;;;;;;;;;;;;22.09;40.06;100335.25;5038797;28;1064;-45
2021/05/12 08:22:25;;;;;;;;;;;;;;;21.84;40.69;100329.31;5038634;28;811;-48
2021/05/12 08:24:51;;;;;;;;;;;;;;;21.79;40.67;100329.44;5039026;28;804;-48
2021/05/12 08:27:16;;;;;;;;;;;;;;;21.83;40.49;100335.97;5038102;28;1069;-49
2021/05/12 08:29:43;;;;;;;;;;;;;;;22.19;39.73;100326.63;5038949;28;745;-46
2021/05/12 08:32:12;;;;;;;;;;;;;;;22.21;39.59;100323.53;5038933;28;1910;-57
2021/05/12 08:34:38;;;;;;;;;;;;;;;22.05;40.22;100325.94;5038315;28;780;-46
2021/05/12 08:37:04;;;;;;;;;;;;;;;22.00;40.30;100323.31;5038723;28;1057;-45
2021/05/12 08:39:29;;;;;;;;;;;;;;;21.93;40.18;100322.97;5039004;28;768;-46
2021/05/12 08:41:55;;;;;;;;;;;;;;;21.88;40.61;100333.06;5037845;28;940;-50
2021/05/12 08:44:20;;;;;;;;;;;;;;;22.24;39.78;100330.38;5037215;28;752;-45
2021/05/12 08:46:46;;;;;;;;;;;;;;;22.34;39.30;100330.09;5038757;28;812;-46
2021/05/12 08:49:11;;;;;;;;;;;;;;;22.17;39.77;100330.84;5037637;28;839;-59
2021/05/12 08:51:37;;;;;;;;;;;;;;;22.18;39.75;100335.25;5037540;28;779;-44
2021/05/12 08:54:02;;;;;;;;;;;;;;;22.07;39.98;100331.97;5038431;28;1917;-44
2021/05/12 08:56:28;;;;;;;;;;;;;;;21.92;40.53;100343.47;5037735;28;1002;-45
2021/05/12 08:58:53;;;;;;;;;;;;;;;22.13;39.89;100339.00;5038385;28;760;-45
2021/05/12 09:01:19;;;;;;;;;;;;;;;22.15;39.77;100333.94;5038749;28;875;-45
2021/05/12 09:03:44;;;;;;;;;;;;;;;22.03;40.29;100342.06;5053325;28;804;-55
2021/05/12 09:06:10;;;;;;;;;;;;;;;21.81;40.62;100343.78;5038337;28;807;-59
2021/05/12 09:08:35;;;;;;;;;;;;;;;21.70;40.83;100343.25;5038821;28;736;-58
2021/05/12 09:11:01;;;;;;;;;;;;;;;22.09;40.18;100346.31;5053296;28;1013;-58
2021/05/12 09:13:29;;;;;;;;;;;;;;;22.37;39.35;100348.81;5037811;28;1914;-54
2021/05/12 09:15:55;;;;;;;;;;;;;;;22.45;39.29;100348.03;5054043;28;590;-58
2021/05/12 09:18:27;;;;;;;;;;;;;;;22.36;39.54;100341.69;5053219;28;1360;-59
2021/05/12 09:20:52;;;;;;;;;;;;;;;22.09;39.59;100349.09;5037397;28;1041;-45
2021/05/12 09:23:19;;;;;;;;;;;;;;;21.81;40.78;100352.09;5037862;28;816;-58
2021/05/12 09:25:51;;;;;;;;;;;;;;;22.11;39.76;100355.09;5037659;28;827;-52
2021/05/12 09:28:17;;;;;;;;;;;;;;;22.44;39.06;100354.72;5037469;28;947;-46
2021/05/12 09:30:46;;;;;;;;;;;;;;;22.28;39.49;100346.03;5037721;28;852;-53
2021/05/12 09:33:27;;;;;;;;;;;;;;;22.15;39.81;100342.25;5037403;28;1899;-59
2021/05/12 09:35:53;;;;;;;;;;;;;;;21.90;39.95;100352.09;5037882;28;1083;-47
2021/05/12 09:38:22;;;;;;;;;;;;;;;21.95;40.18;100348.38;5037587;28;764;-54
2021/05/12 09:41:04;;;;;;;;;;;;;;;22.28;39.31;100345.22;5037465;28;729;-56
2021/05/12 09:43:30;;;;;;;;;;;;;;;21.81;40.43;100352.09;5017696;28;788;-46
2021/05/12 09:46:14;;;;;;;;;;;;;;;21.81;40.33;100348.47;5017587;28;856;-58
2021/05/12 09:48:39;;;;;;;;;;;;;;;21.44;40.84;100342.28;5017657;28;737;-47
2021/05/12 09:51:14;;;;;;;;;;;;;;;21.74;40.14;100337.91;5017771;28;784;-48
2021/05/12 09:53:40;;;;;;;;;;;;;;;22.33;39.12;100336.72;5033461;28;1898;-50
2021/05/12 09:56:05;;;;;;;;;;;;;;;22.15;39.13;100335.91;5035064;28;1022;-58
2021/05/12 09:58:31;;;;;;;;;;;;;;;21.95;39.78;100331.75;5037151;28;847;-58
2021/05/12 10:00:57;;;;;;;;;;;;;;;21.79;39.82;100323.91;5052161;28;1232;-60
2021/05/12 10:03:22;;;;;;;;;;;;;;;21.74;39.95;100320.47;5037110;28;727;-59
2021/05/12 10:05:52;;;;;;;;;;;;;;;21.90;40.07;100324.44;5036756;28;819;-46
2021/05/12 10:08:23;;;;;;;;;;;;;;;22.31;39.18;100323.22;5036690;28;840;-48
2021/05/12 10:11:00;;;;;;;;;;;;;;;22.06;39.72;100319.25;5036608;28;855;-48
2021/05/12 10:13:26;;;;;;;;;;;;;;;21.99;39.85;100324.44;5036243;28;1918;-47
2021/05/12 10:15:51;;;;;;;;;;;;;;;21.67;40.38;100323.69;5036580;28;752;-59
2021/05/12 10:18:17;;;;;;;;;;;;;;;21.32;41.55;100326.25;5036675;28;792;-45
2021/05/12 10:20:42;;;;;;;;;;;;;;;21.71;40.56;100327.44;5036410;28;1060;-47
2021/05/12 10:23:08;;;;;;;;;;;;;;;22.18;39.63;100324.19;5035988;28;792;-54
2021/05/12 10:25:35;;;;;;;;;;;;;;;22.13;39.52;100322.38;5034942;28;982;-59
2021/05/12 10:28:02;;;;;;;;;;;;;;;21.78;40.34;100322.25;5048038;28;1066;-60
2021/05/12 10:30:27;;;;;;;;;;;;;;;21.68;40.57;100322.56;5036665;28;836;-47
2021/05/12 10:32:55;;;;;;;;;;;;;;;21.67;40.32;100324.53;5034404;28;1905;-47
2021/05/12 10:35:37;;;;;;;;;;;;;;;22.08;39.62;100324.47;5035540;28;832;-47
2021/05/12 10:38:03;;;;;;;;;;;;;;;22.33;38.83;100320.97;5036090;28;1187;-46
2021/05/12 10:40:28;;;;;;;;;;;;;;;22.22;39.08;100311.31;5035848;28;938;-46
2021/05/12 10:45:37;;;;;;;;;;;;;;;21.14;41.18;100303.22;5035785;28;748;-48
2021/05/12 10:48:03;;;;;;;;;;;;;;;21.85;40.04;100310.72;5035613;28;760;-52
2021/05/12 10:50:47;;;;;;;;;;;;;;;22.25;39.08;100304.31;5035955;28;787;-58
2021/05/12 10:53:21;;;;;;;;;;;;;;;22.46;38.55;100302.56;5035589;28;1903;-58
2021/05/12 10:55:56;;;;;;;;;;;;;;;21.93;39.83;100303.59;5035469;28;895;-59
2021/05/12 10:58:22;;;;;;;;;;;;;;;21.86;39.73;100304.88;5034449;28;916;-55
2021/05/12 11:01:00;;;;;;;;;;;;;;;21.74;40.21;100301.09;5035107;28;1174;-59
2021/05/12 11:03:28;;;;;;;;;;;;;;;21.76;40.22;100302.41;5035023;28;876;-59
2021/05/12 11:05:56;;;;;;;;;;;;;;;22.22;38.98;100297.47;5034344;28;1438;-54
2021/05/12 11:08:22;;;;;;;;;;;;;;;22.34;38.80;100285.78;5037293;28;745;-60
2021/05/12 11:11:03;;;;;;;;;;;;;;;22.22;39.07;100287.19;5038465;28;733;-49
2021/05/12 11:13:29;;;;;;;;;;;;;;;21.82;40.13;100287.28;5018971;28;1902;-56
2021/05/12 11:15:56;;;;;;;;;;;;;;;21.76;40.11;100285.81;5019041;28;765;-59
2021/05/12 11:18:34;;;;;;;;;;;;;;;21.65;40.42;100287.22;5018984;28;812;-59
2021/05/12 11:21:19;;;;;;;;;;;;;;;22.06;39.46;100288.78;4995218;28;708216;-54
2021/05/12 11:24:03;;;;;;;;;;;;;;;22.47;38.66;100279.28;5020071;28;848;-53
2021/05/12 11:31:56;;;;;;;;;;;;;;;21.73;40.35;100275.38;5039755;28;824;-52
2021/05/12 11:34:21;;;;;;;;;;;;;;;21.85;40.15;100275.59;5039779;28;1975;-60
2021/05/12 11:36:47;;;;;;;;;;;;;;;22.39;38.99;100264.25;5039771;28;1120;-47
2021/05/12 11:39:13;;;;;;;;;;;;;;;22.49;38.50;100271.44;5039372;28;815;-57
2021/05/12 11:41:38;;;;;;;;;;;;;;;22.21;39.33;100274.50;5039114;28;947;-59
2021/05/12 11:44:03;;;;;;;;;;;;;;;22.03;39.42;100273.66;5021226;28;1202;-59
2021/05/12 11:46:37;;;;;;;;;;;;;;;21.39;41.17;100270.50;5039230;28;812;-59
2021/05/12 11:49:06;;;;;;;;;;;;;;;21.85;40.15;100267.28;5040694;28;786;-57
2021/05/12 11:51:39;;;;;;;;;;;;;;;22.21;39.48;100271.72;5039458;28;859;-55
2021/05/12 11:54:05;;;;;;;;;;;;;;;22.11;39.34;100274.81;5039118;28;1921;-59
2021/05/12 11:56:31;;;;;;;;;;;;;;;21.91;40.01;100276.25;5039177;28;942;-52
2021/05/12 11:59:00;;;;;;;;;;;;;;;21.75;39.97;100273.09;5039363;28;783;-51
2021/05/12 12:01:28;;;;;;;;;;;;;;;21.73;40.04;100283.69;5038802;28;1013;-53
2021/05/12 12:07:00;;;;;;;;;;;;;;;22.48;38.44;100272.59;5038912;28;621;-60
2021/05/12 12:09:27;;;;;;;;;;;;;;;22.29;38.86;100280.38;5038975;28;836;-59
2021/05/12 12:11:54;;;;;;;;;;;;;;;21.85;39.56;100272.81;5038823;28;995;-57
2021/05/12 12:14:19;;;;;;;;;;;;;;;21.88;39.52;100263.03;5039262;28;1976;-60
2021/05/12 12:16:46;;;;;;;;;;;;;;;21.83;39.87;100269.53;5039561;28;816;-61
2021/05/12 12:19:12;;;;;;;;;;;;;;;22.28;38.99;100262.13;5038928;28;823;-61
2021/05/12 12:21:39;;;;;;;;;;;;;;;22.44;38.58;100260.53;5038980;28;989;-56
2021/05/12 12:24:31;;;;;;;;;;;;;;;22.27;38.71;100260.50;5038284;28;842;-61
2021/05/12 12:26:58;;;;;;;;;;;;;;;22.07;39.07;100259.97;5038168;28;1969;-48
2021/05/12 12:29:30;;;;;;;;;;;;;;;21.69;40.10;100258.59;5038602;28;784;-60
2021/05/12 12:31:56;;;;;;;;;;;;;;;21.96;39.71;100253.94;5053317;28;982;-58
2021/05/12 12:34:22;;;;;;;;;;;;;;;22.32;38.71;100241.75;5037718;28;1918;-54
2021/05/12 12:37:06;;;;;;;;;;;;;;;22.31;38.80;100245.66;5039020;28;1104;-59
2021/05/12 12:39:38;;;;;;;;;;;;;;;22.15;39.36;100252.84;5038257;28;788;-56
2021/05/12 12:42:04;;;;;;;;;;;;;;;21.93;39.50;100248.25;5038087;28;948;-54
2021/05/12 12:44:36;;;;;;;;;;;;;;;21.72;40.15;100236.97;5037568;28;848;-56
2021/05/12 12:47:01;;;;;;;;;;;;;;;22.01;39.42;100242.72;5038203;28;832;-56
2021/05/12 12:49:37;;;;;;;;;;;;;;;22.27;38.92;100236.38;5038842;28;780;-54
2021/05/12 12:52:09;;;;;;;;;;;;;;;22.43;38.61;100231.19;5038611;28;760;-57
2021/05/12 12:54:40;;;;;;;;;;;;;;;22.14;39.36;100234.59;5020466;28;1910;-57
2021/05/12 12:57:06;;;;;;;;;;;;;;;21.77;40.30;100239.56;5038356;28;947;-57
2021/05/12 12:59:31;;;;;;;;;;;;;;;21.75;40.48;100239.88;5038318;28;784;-57
2021/05/12 13:02:02;;;;;;;;;;;;;;;21.81;40.18;100233.09;5038079;28;985;-54
2021/05/12 13:04:27;;;;;;;;;;;;;;;22.34;39.08;100233.97;5037706;28;857;-57
2021/05/12 13:06:59;;;;;;;;;;;;;;;21.92;39.77;100230.00;5038433;28;848;-55
2021/05/12 13:09:25;;;;;;;;;;;;;;;21.65;40.73;100229.13;5037811;28;756;-57
2021/05/12 13:11:54;;;;;;;;;;;;;;;22.03;39.58;100220.25;5037758;28;998;-58